sensor_id;sensor_type;location;lat;lon;timestamp;pressure;altitude;pressure_sealevel;temperature;humidity
51289;BME280;37372;52.294;5.152;2022-09-01T00:00:47;102330.47;;;14.68;90.75
51289;BME280;37372;52.294;5.152;2022-09-01T00:03:17;102332.91;;;14.66;90.68
51289;BME280;37372;52.294;5.152;2022-09-01T00:05:44;102336.97;;;14.58;90.90
51289;BME280;37372;52.294;5.152;2022-09-01T00:08:13;102333.72;;;14.56;91.18
51289;BME280;37372;52.294;5.152;2022-09-01T00:10:39;102333.72;;;14.56;91.71
51289;BME280;37372;52.294;5.152;2022-09-01T00:13:05;102328.91;;;14.53;92.11
51289;BME280;37372;52.294;5.152;2022-09-01T00:15:32;102326.44;;;14.51;92.14
51289;BME280;37372;52.294;5.152;2022-09-01T00:17:58;102328.84;;;14.49;92.29
51289;BME280;37372;52.294;5.152;2022-09-01T00:20:23;102321.59;;;14.52;92.40
51289;BME280;37372;52.294;5.152;2022-09-01T00:22:49;102317.16;;;14.51;92.12
51289;BME280;37372;52.294;5.152;2022-09-01T00:25:14;102323.25;;;14.53;92.87
51289;BME280;37372;52.294;5.152;2022-09-01T00:27:42;102322.38;;;14.52;93.04
51289;BME280;37372;52.294;5.152;2022-09-01T00:30:08;102325.63;;;14.51;93.19
51289;BME280;37372;52.294;5.152;2022-09-01T00:32:34;102313.13;;;14.45;92.94
51289;BME280;37372;52.294;5.152;2022-09-01T00:34:59;102318.41;;;14.43;93.80
51289;BME280;37372;52.294;5.152;2022-09-01T00:37:24;102317.19;;;14.44;94.27
51289;BME280;37372;52.294;5.152;2022-09-01T00:39:50;102318.41;;;14.43;94.30
51289;BME280;37372;52.294;5.152;2022-09-01T00:42:15;102317.59;;;14.39;94.31
51289;BME280;37372;52.294;5.152;2022-09-01T00:44:40;102317.59;;;14.31;94.70
51289;BME280;37372;52.294;5.152;2022-09-01T00:47:06;102319.22;;;14.32;94.61
51289;BME280;37372;52.294;5.152;2022-09-01T00:49:40;102303.09;;;14.33;94.57
51289;BME280;37372;52.294;5.152;2022-09-01T00:52:12;102308.72;;;14.29;94.59
51289;BME280;37372;52.294;5.152;2022-09-01T00:54:42;102303.91;;;14.26;94.70
51289;BME280;37372;52.294;5.152;2022-09-01T00:57:10;102308.75;;;14.26;95.08
51289;BME280;37372;52.294;5.152;2022-09-01T00:59:44;102307.13;;;14.28;94.54
51289;BME280;37372;52.294;5.152;2022-09-01T01:02:11;102307.13;;;14.28;94.67
51289;BME280;37372;52.294;5.152;2022-09-01T01:04:37;102296.63;;;14.29;94.14
51289;BME280;37372;52.294;5.152;2022-09-01T01:07:02;102301.50;;;14.21;94.37
51289;BME280;37372;52.294;5.152;2022-09-01T01:09:31;102296.25;;;14.16;94.91
51289;BME280;37372;52.294;5.152;2022-09-01T01:11:58;102297.06;;;14.17;94.98
51289;BME280;37372;52.294;5.152;2022-09-01T01:14:25;102295.06;;;14.10;94.79
51289;BME280;37372;52.294;5.152;2022-09-01T01:16:51;102299.09;;;14.09;95.44
51289;BME280;37372;52.294;5.152;2022-09-01T01:19:33;102299.91;;;14.13;95.47
51289;BME280;37372;52.294;5.152;2022-09-01T01:22:48;102295.47;;;14.08;94.70
51289;BME280;37372;52.294;5.152;2022-09-01T01:25:45;102291.44;;;13.99;94.57
51289;BME280;37372;52.294;5.152;2022-09-01T01:30:54;102296.66;;;13.97;95.21
51289;BME280;37372;52.294;5.152;2022-09-01T01:33:26;102291.44;;;13.92;95.25
51289;BME280;37372;52.294;5.152;2022-09-01T01:35:52;102287.00;;;13.90;95.59
51289;BME280;37372;52.294;5.152;2022-09-01T01:38:19;102293.47;;;13.95;95.68
51289;BME280;37372;52.294;5.152;2022-09-01T01:40:47;102297.47;;;14.01;95.92
51289;BME280;37372;52.294;5.152;2022-09-01T01:43:13;102289.44;;;13.92;95.26
51289;BME280;37372;52.294;5.152;2022-09-01T01:45:45;102292.66;;;13.90;96.14
51289;BME280;37372;52.294;5.152;2022-09-01T01:48:11;102291.03;;;13.86;95.75
51289;BME280;37372;52.294;5.152;2022-09-01T01:50:37;102287.81;;;13.77;95.62
51289;BME280;37372;52.294;5.152;2022-09-01T01:53:06;102288.63;;;13.77;96.91
51289;BME280;37372;52.294;5.152;2022-09-01T01:55:31;102286.19;;;13.76;96.72
51289;BME280;37372;52.294;5.152;2022-09-01T01:57:58;102293.03;;;13.71;96.72
51289;BME280;37372;52.294;5.152;2022-09-01T02:00:31;102290.63;;;13.66;96.34
51289;BME280;37372;52.294;5.152;2022-09-01T02:02:58;102288.22;;;13.68;97.28
51289;BME280;37372;52.294;5.152;2022-09-01T02:05:27;102289.81;;;13.65;96.28
51289;BME280;37372;52.294;5.152;2022-09-01T02:07:55;102295.06;;;13.60;96.46
51289;BME280;37372;52.294;5.152;2022-09-01T02:10:26;102295.06;;;13.63;96.46
51289;BME280;37372;52.294;5.152;2022-09-01T02:12:53;102294.25;;;13.63;95.80
51289;BME280;37372;52.294;5.152;2022-09-01T02:15:18;102291.03;;;13.61;96.24
51289;BME280;37372;52.294;5.152;2022-09-01T02:17:44;102295.84;;;13.60;96.70
51289;BME280;37372;52.294;5.152;2022-09-01T02:20:11;102294.22;;;13.56;96.45
51289;BME280;37372;52.294;5.152;2022-09-01T02:22:41;102298.25;;;13.58;95.88
51289;BME280;37372;52.294;5.152;2022-09-01T02:25:09;102295.47;;;13.55;95.83
51289;BME280;37372;52.294;5.152;2022-09-01T02:27:35;102300.69;;;13.53;95.05
51289;BME280;37372;52.294;5.152;2022-09-01T02:30:03;102299.09;;;13.52;96.08
51289;BME280;37372;52.294;5.152;2022-09-01T02:32:31;102298.25;;;13.48;95.32
51289;BME280;37372;52.294;5.152;2022-09-01T02:34:56;102291.00;;;13.43;95.53
51289;BME280;37372;52.294;5.152;2022-09-01T02:37:25;102293.84;;;13.50;94.93
51289;BME280;37372;52.294;5.152;2022-09-01T02:39:51;102295.03;;;13.45;95.08
51289;BME280;37372;52.294;5.152;2022-09-01T02:42:18;102292.63;;;13.48;95.45
51289;BME280;37372;52.294;5.152;2022-09-01T02:44:52;102291.81;;;13.43;95.13
51289;BME280;37372;52.294;5.152;2022-09-01T02:47:18;102300.69;;;13.38;95.50
51289;BME280;37372;52.294;5.152;2022-09-01T02:49:43;102294.22;;;13.38;95.78
51289;BME280;37372;52.294;5.152;2022-09-01T02:52:08;102295.03;;;13.38;96.00
51289;BME280;37372;52.294;5.152;2022-09-01T02:54:34;102293.41;;;13.37;95.17
51289;BME280;37372;52.294;5.152;2022-09-01T02:57:00;102295.03;;;13.38;95.20
51289;BME280;37372;52.294;5.152;2022-09-01T02:59:27;102294.22;;;13.34;95.32
51289;BME280;37372;52.294;5.152;2022-09-01T03:01:53;102293.38;;;13.30;95.28
51289;BME280;37372;52.294;5.152;2022-09-01T03:04:19;102278.09;;;13.31;94.14
51289;BME280;37372;52.294;5.152;2022-09-01T03:06:46;102280.50;;;13.29;94.74
51289;BME280;37372;52.294;5.152;2022-09-01T03:09:14;102286.94;;;13.26;94.75
51289;BME280;37372;52.294;5.152;2022-09-01T03:11:41;102274.84;;;13.18;94.76
51289;BME280;37372;52.294;5.152;2022-09-01T03:14:07;102277.22;;;13.20;94.99
51289;BME280;37372;52.294;5.152;2022-09-01T03:16:35;102279.66;;;13.18;95.07
51289;BME280;37372;52.294;5.152;2022-09-01T03:19:02;102282.88;;;13.16;95.88
51289;BME280;37372;52.294;5.152;2022-09-01T03:21:28;102284.06;;;13.12;95.65
51289;BME280;37372;52.294;5.152;2022-09-01T03:23:55;102289.28;;;13.06;94.92
51289;BME280;37372;52.294;5.152;2022-09-01T03:26:22;102286.06;;;13.04;95.32
51289;BME280;37372;52.294;5.152;2022-09-01T03:28:50;102283.22;;;13.08;94.05
51289;BME280;37372;52.294;5.152;2022-09-01T03:31:16;102283.66;;;13.10;94.65
51289;BME280;37372;52.294;5.152;2022-09-01T03:33:43;102279.22;;;13.12;93.41
51289;BME280;37372;52.294;5.152;2022-09-01T03:36:08;102282.03;;;13.09;93.80
51289;BME280;37372;52.294;5.152;2022-09-01T03:38:42;102277.22;;;13.06;94.14
51289;BME280;37372;52.294;5.152;2022-09-01T03:41:08;102277.97;;;13.02;93.95
51289;BME280;37372;52.294;5.152;2022-09-01T03:43:34;102271.56;;;13.02;93.24
51289;BME280;37372;52.294;5.152;2022-09-01T03:45:59;102263.50;;;13.08;93.73
51289;BME280;37372;52.294;5.152;2022-09-01T03:48:27;102264.31;;;13.01;93.28
51289;BME280;37372;52.294;5.152;2022-09-01T03:50:54;102257.88;;;13.00;94.20
51289;BME280;37372;52.294;5.152;2022-09-01T03:53:22;102265.13;;;12.98;93.56
51289;BME280;37372;52.294;5.152;2022-09-01T03:55:49;102264.31;;;13.01;93.62
51289;BME280;37372;52.294;5.152;2022-09-01T03:58:18;102265.50;;;12.96;92.97
51289;BME280;37372;52.294;5.152;2022-09-01T04:00:46;102263.91;;;12.95;93.88
51289;BME280;37372;52.294;5.152;2022-09-01T04:03:13;102267.53;;;12.99;93.01
51289;BME280;37372;52.294;5.152;2022-09-01T04:05:43;102266.31;;;12.97;92.71
51289;BME280;37372;52.294;5.152;2022-09-01T04:08:10;102260.66;;;12.93;92.53
51289;BME280;37372;52.294;5.152;2022-09-01T04:10:42;102264.28;;;12.97;92.18
51289;BME280;37372;52.294;5.152;2022-09-01T04:13:23;102255.06;;;13.00;92.26
51289;BME280;37372;52.294;5.152;2022-09-01T04:15:50;102260.28;;;12.98;92.38
51289;BME280;37372;52.294;5.152;2022-09-01T04:18:16;102258.28;;;12.95;92.38
51289;BME280;37372;52.294;5.152;2022-09-01T04:20:56;102262.69;;;12.96;92.31
51289;BME280;37372;52.294;5.152;2022-09-01T04:28:24;102263.47;;;12.90;91.94
51289;BME280;37372;52.294;5.152;2022-09-01T04:30:55;102264.66;;;12.89;91.91
51289;BME280;37372;52.294;5.152;2022-09-01T04:33:27;102260.25;;;12.88;91.92
51289;BME280;37372;52.294;5.152;2022-09-01T04:36:02;102266.31;;;12.93;92.16
51289;BME280;37372;52.294;5.152;2022-09-01T04:38:28;102267.09;;;12.90;92.19
51289;BME280;37372;52.294;5.152;2022-09-01T04:40:55;102256.59;;;12.87;92.15
51289;BME280;37372;52.294;5.152;2022-09-01T04:43:22;102263.47;;;12.86;91.82
51289;BME280;37372;52.294;5.152;2022-09-01T04:45:48;102260.63;;;12.86;91.85
51289;BME280;37372;52.294;5.152;2022-09-01T04:48:17;102261.41;;;12.79;91.63
51289;BME280;37372;52.294;5.152;2022-09-01T04:50:43;102255.00;;;12.82;92.65
51289;BME280;37372;52.294;5.152;2022-09-01T04:53:09;102260.63;;;12.82;92.49
51289;BME280;37372;52.294;5.152;2022-09-01T04:55:38;102258.59;;;12.76;91.94
51289;BME280;37372;52.294;5.152;2022-09-01T04:58:07;102263.38;;;12.72;92.09
51289;BME280;37372;52.294;5.152;2022-09-01T05:00:33;102256.19;;;12.78;91.25
51289;BME280;37372;52.294;5.152;2022-09-01T05:03:01;102266.63;;;12.74;92.12
51289;BME280;37372;52.294;5.152;2022-09-01T05:05:34;102258.97;;;12.74;91.53
51289;BME280;37372;52.294;5.152;2022-09-01T05:08:03;102261.81;;;12.78;92.25
51289;BME280;37372;52.294;5.152;2022-09-01T05:10:29;102261.84;;;12.85;90.58
51289;BME280;37372;52.294;5.152;2022-09-01T05:12:55;102261.03;;;12.81;90.82
51289;BME280;37372;52.294;5.152;2022-09-01T05:15:21;102259.44;;;12.84;91.41
51289;BME280;37372;52.294;5.152;2022-09-01T05:17:47;102261.03;;;12.81;90.98
51289;BME280;37372;52.294;5.152;2022-09-01T05:20:13;102267.50;;;12.85;91.84
51289;BME280;37372;52.294;5.152;2022-09-01T05:22:38;102263.84;;;12.85;90.95
51289;BME280;37372;52.294;5.152;2022-09-01T05:25:06;102263.47;;;12.90;91.39
51289;BME280;37372;52.294;5.152;2022-09-01T05:27:40;102271.53;;;12.88;90.52
51289;BME280;37372;52.294;5.152;2022-09-01T05:30:06;102268.72;;;12.91;90.61
51289;BME280;37372;52.294;5.152;2022-09-01T05:32:35;102268.31;;;12.96;89.32
51289;BME280;37372;52.294;5.152;2022-09-01T05:35:03;102264.31;;;13.04;88.69
51289;BME280;37372;52.294;5.152;2022-09-01T05:37:33;102257.88;;;13.08;89.18
51289;BME280;37372;52.294;5.152;2022-09-01T05:39:58;102261.94;;;13.17;88.34
51289;BME280;37372;52.294;5.152;2022-09-01T05:42:23;102265.97;;;13.20;87.22
51289;BME280;37372;52.294;5.152;2022-09-01T05:44:52;102261.16;;;13.24;86.99
51289;BME280;37372;52.294;5.152;2022-09-01T05:47:18;102265.19;;;13.23;87.19
51289;BME280;37372;52.294;5.152;2022-09-01T05:49:46;102272.06;;;13.29;86.89
51289;BME280;37372;52.294;5.152;2022-09-01T05:52:11;102263.63;;;13.36;86.41
51289;BME280;37372;52.294;5.152;2022-09-01T05:54:36;102266.84;;;13.38;86.04
51289;BME280;37372;52.294;5.152;2022-09-01T05:57:02;102264.41;;;13.40;85.84
51289;BME280;37372;52.294;5.152;2022-09-01T05:59:28;102274.09;;;13.46;85.65
51289;BME280;37372;52.294;5.152;2022-09-01T06:01:57;102264.44;;;13.51;85.04
51289;BME280;37372;52.294;5.152;2022-09-01T06:04:23;102270.91;;;13.59;83.91
51289;BME280;37372;52.294;5.152;2022-09-01T06:06:52;102269.69;;;13.71;83.50
51289;BME280;37372;52.294;5.152;2022-09-01T06:09:19;102269.28;;;13.79;83.52
51289;BME280;37372;52.294;5.152;2022-09-01T06:11:48;102270.09;;;13.83;83.43
51289;BME280;37372;52.294;5.152;2022-09-01T06:14:14;102280.56;;;13.86;82.58
51289;BME280;37372;52.294;5.152;2022-09-01T06:16:40;102277.31;;;13.92;82.85
51289;BME280;37372;52.294;5.152;2022-09-01T06:19:07;102268.06;;;13.98;82.57
51289;BME280;37372;52.294;5.152;2022-09-01T06:21:32;102270.91;;;14.02;82.61
51289;BME280;37372;52.294;5.152;2022-09-01T06:23:58;102270.50;;;14.07;82.53
51289;BME280;37372;52.294;5.152;2022-09-01T06:26:29;102277.34;;;14.09;80.31
51289;BME280;37372;52.294;5.152;2022-09-01T06:28:57;102270.06;;;14.12;80.47
51289;BME280;37372;52.294;5.152;2022-09-01T06:31:25;102275.69;;;14.19;79.75
51289;BME280;37372;52.294;5.152;2022-09-01T06:33:53;102268.44;;;14.25;79.96
51289;BME280;37372;52.294;5.152;2022-09-01T06:36:20;102269.22;;;14.33;78.80
51289;BME280;37372;52.294;5.152;2022-09-01T06:38:48;102277.25;;;14.34;78.96
51289;BME280;37372;52.294;5.152;2022-09-01T06:41:17;102280.91;;;14.39;78.97
51289;BME280;37372;52.294;5.152;2022-09-01T06:43:48;102280.06;;;14.42;79.02
51289;BME280;37372;52.294;5.152;2022-09-01T06:46:15;102278.47;;;14.48;78.25
51289;BME280;37372;52.294;5.152;2022-09-01T06:48:41;102275.63;;;14.51;78.19
51289;BME280;37372;52.294;5.152;2022-09-01T06:51:18;102278.06;;;14.53;77.70
51289;BME280;37372;52.294;5.152;2022-09-01T06:53:46;102275.19;;;14.60;76.24
51289;BME280;37372;52.294;5.152;2022-09-01T06:56:15;102277.22;;;14.67;77.13
51289;BME280;37372;52.294;5.152;2022-09-01T06:58:44;102281.22;;;14.69;77.17
51289;BME280;37372;52.294;5.152;2022-09-01T07:01:14;102281.59;;;14.75;76.08
51289;BME280;37372;52.294;5.152;2022-09-01T07:03:43;102290.84;;;14.83;76.12
51289;BME280;37372;52.294;5.152;2022-09-01T07:06:09;102293.25;;;14.88;74.52
51289;BME280;37372;52.294;5.152;2022-09-01T07:08:36;102292.44;;;14.94;74.53
51289;BME280;37372;52.294;5.152;2022-09-01T07:11:05;102291.59;;;14.97;73.96
51289;BME280;37372;52.294;5.152;2022-09-01T07:13:32;102291.13;;;15.13;74.23
51289;BME280;37372;52.294;5.152;2022-09-01T07:16:00;102293.97;;;15.10;73.77
51289;BME280;37372;52.294;5.152;2022-09-01T07:18:26;102295.13;;;15.19;74.36
51289;BME280;37372;52.294;5.152;2022-09-01T07:20:53;102302.78;;;15.23;73.11
51289;BME280;37372;52.294;5.152;2022-09-01T07:23:20;102293.84;;;15.35;72.85
51289;BME280;37372;52.294;5.152;2022-09-01T07:25:47;102297.84;;;15.34;72.65
51289;BME280;37372;52.294;5.152;2022-09-01T07:28:14;102295.84;;;15.34;72.43
51289;BME280;37372;52.294;5.152;2022-09-01T07:30:47;102298.25;;;15.36;73.25
51289;BME280;37372;52.294;5.152;2022-09-01T07:33:14;102295.03;;;15.34;73.13
51289;BME280;37372;52.294;5.152;2022-09-01T07:35:41;102296.22;;;15.36;73.76
51289;BME280;37372;52.294;5.152;2022-09-01T07:38:08;102292.19;;;15.34;73.40
51289;BME280;37372;52.294;5.152;2022-09-01T07:40:35;102300.31;;;15.32;73.07
51289;BME280;37372;52.294;5.152;2022-09-01T07:43:04;102306.75;;;15.36;73.91
51289;BME280;37372;52.294;5.152;2022-09-01T07:45:33;102294.19;;;15.40;73.87
51289;BME280;37372;52.294;5.152;2022-09-01T07:47:59;102301.41;;;15.52;71.92
51289;BME280;37372;52.294;5.152;2022-09-01T07:50:27;102303.34;;;15.59;72.54
51289;BME280;37372;52.294;5.152;2022-09-01T07:52:54;102311.38;;;15.68;71.74
51289;BME280;37372;52.294;5.152;2022-09-01T07:55:19;102300.06;;;15.75;71.72
51289;BME280;37372;52.294;5.152;2022-09-01T07:57:46;102309.66;;;15.84;70.13
51289;BME280;37372;52.294;5.152;2022-09-01T08:00:13;102299.06;;;15.92;70.16
51289;BME280;37372;52.294;5.152;2022-09-01T08:02:42;102302.28;;;15.98;70.32
51289;BME280;37372;52.294;5.152;2022-09-01T08:05:14;102306.59;;;16.10;69.03
51289;BME280;37372;52.294;5.152;2022-09-01T08:07:42;102302.13;;;16.16;68.52
51289;BME280;37372;52.294;5.152;2022-09-01T08:10:08;102306.88;;;16.26;68.20
51289;BME280;37372;52.294;5.152;2022-09-01T08:12:34;102302.75;;;16.31;68.37
51289;BME280;37372;52.294;5.152;2022-09-01T08:15:05;102308.00;;;16.32;67.86
51289;BME280;37372;52.294;5.152;2022-09-01T08:17:30;102307.09;;;16.42;68.09
51289;BME280;37372;52.294;5.152;2022-09-01T08:19:56;102299.28;;;16.54;68.01
51289;BME280;37372;52.294;5.152;2022-09-01T08:22:21;102316.28;;;16.54;66.45
51289;BME280;37372;52.294;5.152;2022-09-01T08:24:50;102306.50;;;16.62;64.79
51289;BME280;37372;52.294;5.152;2022-09-01T08:27:15;102312.41;;;16.75;65.52
51289;BME280;37372;52.294;5.152;2022-09-01T08:29:40;102315.19;;;16.82;65.18
51289;BME280;37372;52.294;5.152;2022-09-01T08:32:06;102315.47;;;16.91;63.52
51289;BME280;37372;52.294;5.152;2022-09-01T08:34:32;102311.31;;;16.99;64.18
51289;BME280;37372;52.294;5.152;2022-09-01T08:36:58;102308.00;;;17.04;63.61
51289;BME280;37372;52.294;5.152;2022-09-01T08:39:23;102316.47;;;17.08;63.00
51289;BME280;37372;52.294;5.152;2022-09-01T08:42:14;102310.75;;;17.11;62.31
51289;BME280;37372;52.294;5.152;2022-09-01T08:45:01;102312.78;;;17.11;62.57
51289;BME280;37372;52.294;5.152;2022-09-01T08:47:29;102312.25;;;17.20;63.43
51289;BME280;37372;52.294;5.152;2022-09-01T08:49:55;102309.81;;;17.22;62.31
51289;BME280;37372;52.294;5.152;2022-09-01T08:52:36;102314.34;;;17.43;63.10
51289;BME280;37372;52.294;5.152;2022-09-01T08:55:25;102307.47;;;17.44;61.83
51289;BME280;37372;52.294;5.152;2022-09-01T08:57:55;102313.53;;;17.46;61.08
51289;BME280;37372;52.294;5.152;2022-09-01T09:00:27;102305.25;;;17.55;61.51
51289;BME280;37372;52.294;5.152;2022-09-01T09:05:46;102309.81;;;17.76;60.78
51289;BME280;37372;52.294;5.152;2022-09-01T09:11:37;102304.09;;;18.03;58.83
51289;BME280;37372;52.294;5.152;2022-09-01T09:16:53;102308.00;;;18.13;58.28
51289;BME280;37372;52.294;5.152;2022-09-01T09:19:27;102302.69;;;18.15;58.51
51289;BME280;37372;52.294;5.152;2022-09-01T09:21:55;102288.13;;;18.13;58.87
51289;BME280;37372;52.294;5.152;2022-09-01T09:24:43;102304.09;;;18.27;57.56
51289;BME280;37372;52.294;5.152;2022-09-01T09:27:27;102287.94;;;18.43;58.87
51289;BME280;37372;52.294;5.152;2022-09-01T09:30:18;102287.16;;;18.43;58.05
51289;BME280;37372;52.294;5.152;2022-09-01T09:32:51;102280.16;;;18.48;57.85
51289;BME280;37372;52.294;5.152;2022-09-01T09:35:21;102282.50;;;18.73;56.80
51289;BME280;37372;52.294;5.152;2022-09-01T09:37:46;102277.47;;;18.60;56.08
51289;BME280;37372;52.294;5.152;2022-09-01T09:40:15;102278.19;;;18.64;54.67
51289;BME280;37372;52.294;5.152;2022-09-01T09:42:59;102261.13;;;18.64;55.25
51289;BME280;37372;52.294;5.152;2022-09-01T09:45:29;102266.66;;;18.75;53.19
51289;BME280;37372;52.294;5.152;2022-09-01T09:47:58;102256.34;;;19.01;53.48
51289;BME280;37372;52.294;5.152;2022-09-01T09:50:35;102258.66;;;19.06;50.59
51289;BME280;37372;52.294;5.152;2022-09-01T09:53:12;102250.56;;;19.05;52.29
51289;BME280;37372;52.294;5.152;2022-09-01T09:55:54;102251.59;;;19.31;51.43
51289;BME280;37372;52.294;5.152;2022-09-01T09:58:23;102269.69;;;19.21;50.13
51289;BME280;37372;52.294;5.152;2022-09-01T10:01:10;102258.00;;;19.35;48.82
51289;BME280;37372;52.294;5.152;2022-09-01T10:03:45;102260.13;;;19.31;48.76
51289;BME280;37372;52.294;5.152;2022-09-01T10:06:40;102252.75;;;19.34;48.69
51289;BME280;37372;52.294;5.152;2022-09-01T10:09:16;102256.56;;;19.27;48.36
51289;BME280;37372;52.294;5.152;2022-09-01T10:11:57;102248.22;;;19.36;47.48
51289;BME280;37372;52.294;5.152;2022-09-01T10:14:32;102261.38;;;19.30;48.83
51289;BME280;37372;52.294;5.152;2022-09-01T10:17:05;102245.38;;;19.36;47.36
51289;BME280;37372;52.294;5.152;2022-09-01T10:19:33;102244.22;;;19.34;47.21
51289;BME280;37372;52.294;5.152;2022-09-01T10:22:01;102254.63;;;19.40;47.63
51289;BME280;37372;52.294;5.152;2022-09-01T10:24:32;102240.59;;;19.49;47.47
51289;BME280;37372;52.294;5.152;2022-09-01T10:27:02;102246.72;;;19.64;46.40
51289;BME280;37372;52.294;5.152;2022-09-01T10:29:45;102251.97;;;19.66;46.08
51289;BME280;37372;52.294;5.152;2022-09-01T10:32:17;102246.25;;;19.66;45.89
51289;BME280;37372;52.294;5.152;2022-09-01T10:34:45;102243.81;;;19.68;46.09
51289;BME280;37372;52.294;5.152;2022-09-01T10:37:11;102240.56;;;19.66;47.00
51289;BME280;37372;52.294;5.152;2022-09-01T10:42:54;102244.00;;;19.77;44.57
51289;BME280;37372;52.294;5.152;2022-09-01T10:45:37;102249.06;;;19.69;44.79
51289;BME280;37372;52.294;5.152;2022-09-01T10:50:48;102232.03;;;19.66;45.42
51289;BME280;37372;52.294;5.152;2022-09-01T10:53:38;102231.72;;;19.80;46.94
51289;BME280;37372;52.294;5.152;2022-09-01T11:04:20;102228.34;;;20.14;45.53
51289;BME280;37372;52.294;5.152;2022-09-01T11:06:57;102227.72;;;20.07;45.43
51289;BME280;37372;52.294;5.152;2022-09-01T11:10:06;102227.53;;;20.14;45.11
51289;BME280;37372;52.294;5.152;2022-09-01T11:12:31;102224.34;;;20.12;45.99
51289;BME280;37372;52.294;5.152;2022-09-01T11:15:05;102224.53;;;20.05;44.98
51289;BME280;37372;52.294;5.152;2022-09-01T11:20:35;102223.72;;;20.04;44.44
51289;BME280;37372;52.294;5.152;2022-09-01T11:23:09;102219.97;;;20.07;46.02
51289;BME280;37372;52.294;5.152;2022-09-01T11:25:44;102222.03;;;20.07;45.06
51289;BME280;37372;52.294;5.152;2022-09-01T11:33:32;102227.00;;;20.19;44.72
51289;BME280;37372;52.294;5.152;2022-09-01T11:36:05;102217.84;;;20.41;43.75
51289;BME280;37372;52.294;5.152;2022-09-01T11:38:47;102221.84;;;20.43;43.49
51289;BME280;37372;52.294;5.152;2022-09-01T11:41:27;102215.00;;;20.41;43.62
51289;BME280;37372;52.294;5.152;2022-09-01T11:43:57;102216.59;;;20.42;42.46
51289;BME280;37372;52.294;5.152;2022-09-01T11:46:28;102204.63;;;20.47;43.18
51289;BME280;37372;52.294;5.152;2022-09-01T11:48:58;102202.81;;;20.53;42.99
51289;BME280;37372;52.294;5.152;2022-09-01T11:51:24;102217.38;;;20.58;41.47
51289;BME280;37372;52.294;5.152;2022-09-01T11:53:51;102212.25;;;20.66;40.57
51289;BME280;37372;52.294;5.152;2022-09-01T11:56:26;102207.13;;;20.74;42.07
51289;BME280;37372;52.294;5.152;2022-09-01T11:58:52;102210.06;;;20.70;41.29
51289;BME280;37372;52.294;5.152;2022-09-01T12:01:31;102206.63;;;20.63;41.59
51289;BME280;37372;52.294;5.152;2022-09-01T12:03:57;102205.63;;;20.69;40.83
51289;BME280;37372;52.294;5.152;2022-09-01T12:06:28;102198.44;;;20.65;41.23
51289;BME280;37372;52.294;5.152;2022-09-01T12:09:02;102196.94;;;20.60;40.54
51289;BME280;37372;52.294;5.152;2022-09-01T12:11:33;102199.94;;;20.69;41.39
51289;BME280;37372;52.294;5.152;2022-09-01T12:14:02;102195.38;;;20.72;40.25
51289;BME280;37372;52.294;5.152;2022-09-01T12:16:29;102193.41;;;20.56;41.06
51289;BME280;37372;52.294;5.152;2022-09-01T12:18:56;102200.59;;;20.73;40.09
51289;BME280;37372;52.294;5.152;2022-09-01T12:21:30;102180.53;;;20.64;41.21
51289;BME280;37372;52.294;5.152;2022-09-01T12:24:35;102188.88;;;20.71;40.12
51289;BME280;37372;52.294;5.152;2022-09-01T12:27:01;102186.31;;;20.60;40.38
51289;BME280;37372;52.294;5.152;2022-09-01T12:29:27;102193.16;;;20.63;40.28
51289;BME280;37372;52.294;5.152;2022-09-01T12:31:54;102189.19;;;20.73;41.79
51289;BME280;37372;52.294;5.152;2022-09-01T12:39:33;102184.06;;;20.68;43.96
51289;BME280;37372;52.294;5.152;2022-09-01T12:42:06;102170.50;;;21.11;44.36
51289;BME280;37372;52.294;5.152;2022-09-01T12:47:10;102165.03;;;21.16;44.60
51289;BME280;37372;52.294;5.152;2022-09-01T12:49:45;102159.88;;;21.11;44.08
51289;BME280;37372;52.294;5.152;2022-09-01T12:54:47;102168.34;;;21.28;43.88
51289;BME280;37372;52.294;5.152;2022-09-01T12:57:38;102172.75;;;21.54;42.24
51289;BME280;37372;52.294;5.152;2022-09-01T13:02:41;102165.00;;;21.42;41.76
51289;BME280;37372;52.294;5.152;2022-09-01T13:07:55;102148.34;;;21.53;44.42
51289;BME280;37372;52.294;5.152;2022-09-01T13:10:22;102151.88;;;21.44;42.67
51289;BME280;37372;52.294;5.152;2022-09-01T13:12:50;102153.34;;;21.49;44.76
51289;BME280;37372;52.294;5.152;2022-09-01T13:15:16;102156.22;;;21.36;43.93
51289;BME280;37372;52.294;5.152;2022-09-01T13:17:41;102142.75;;;21.24;44.48
51289;BME280;37372;52.294;5.152;2022-09-01T13:20:08;102145.84;;;21.42;45.76
51289;BME280;37372;52.294;5.152;2022-09-01T13:22:34;102134.06;;;21.53;46.07
51289;BME280;37372;52.294;5.152;2022-09-01T13:25:00;102143.03;;;21.64;44.15
51289;BME280;37372;52.294;5.152;2022-09-01T13:27:26;102136.31;;;21.58;43.63
51289;BME280;37372;52.294;5.152;2022-09-01T13:29:51;102145.59;;;21.50;42.61
51289;BME280;37372;52.294;5.152;2022-09-01T13:32:18;102132.13;;;21.50;43.96
51289;BME280;37372;52.294;5.152;2022-09-01T13:34:44;102126.28;;;21.54;43.58
51289;BME280;37372;52.294;5.152;2022-09-01T13:37:09;102118.94;;;21.65;43.76
51289;BME280;37372;52.294;5.152;2022-09-01T13:39:34;102118.84;;;21.56;43.78
51289;BME280;37372;52.294;5.152;2022-09-01T13:42:00;102111.66;;;21.52;44.11
51289;BME280;37372;52.294;5.152;2022-09-01T13:44:25;102126.53;;;21.46;40.99
51289;BME280;37372;52.294;5.152;2022-09-01T13:46:50;102125.19;;;21.38;41.98
51289;BME280;37372;52.294;5.152;2022-09-01T13:49:16;102123.13;;;21.26;42.01
51289;BME280;37372;52.294;5.152;2022-09-01T13:51:41;102121.50;;;21.38;43.15
51289;BME280;37372;52.294;5.152;2022-09-01T13:54:06;102114.31;;;21.46;42.99
51289;BME280;37372;52.294;5.152;2022-09-01T13:56:32;102103.66;;;21.59;43.78